sensor_id;sensor_type;location;lat;lon;timestamp;P1;durP1;ratioP1;P2;durP2;ratioP2
65936;SDS011;52707;52.086;5.418;2023-04-06T00:02:17;15.05;;;9.93;;
65936;SDS011;52707;52.086;5.418;2023-04-06T00:04:44;13.40;;;8.75;;
65936;SDS011;52707;52.086;5.418;2023-04-06T00:07:10;14.10;;;9.52;;
65936;SDS011;52707;52.086;5.418;2023-04-06T00:09:37;16.17;;;9.73;;
65936;SDS011;52707;52.086;5.418;2023-04-06T00:12:03;14.57;;;9.05;;
65936;SDS011;52707;52.086;5.418;2023-04-06T00:14:29;15.90;;;10.07;;
65936;SDS011;52707;52.086;5.418;2023-04-06T00:16:55;15.32;;;9.85;;
65936;SDS011;52707;52.086;5.418;2023-04-06T00:19:22;13.00;;;9.05;;
65936;SDS011;52707;52.086;5.418;2023-04-06T00:21:48;13.30;;;9.20;;
65936;SDS011;52707;52.086;5.418;2023-04-06T00:24:15;13.60;;;9.00;;
65936;SDS011;52707;52.086;5.418;2023-04-06T00:26:41;15.15;;;9.50;;
65936;SDS011;52707;52.086;5.418;2023-04-06T00:29:07;15.85;;;9.90;;
65936;SDS011;52707;52.086;5.418;2023-04-06T00:31:34;15.88;;;9.95;;
65936;SDS011;52707;52.086;5.418;2023-04-06T00:34:01;18.52;;;9.23;;
65936;SDS011;52707;52.086;5.418;2023-04-06T00:36:27;16.98;;;9.32;;
65936;SDS011;52707;52.086;5.418;2023-04-06T00:38:53;14.80;;;9.35;;
65936;SDS011;52707;52.086;5.418;2023-04-06T00:41:19;13.68;;;9.18;;
65936;SDS011;52707;52.086;5.418;2023-04-06T00:43:46;15.70;;;9.68;;
65936;SDS011;52707;52.086;5.418;2023-04-06T00:46:13;19.60;;;9.93;;
65936;SDS011;52707;52.086;5.418;2023-04-06T00:48:39;15.45;;;9.50;;
65936;SDS011;52707;52.086;5.418;2023-04-06T00:51:06;17.90;;;11.25;;
65936;SDS011;52707;52.086;5.418;2023-04-06T00:53:33;18.70;;;11.10;;
65936;SDS011;52707;52.086;5.418;2023-04-06T00:55:59;14.18;;;9.18;;
65936;SDS011;52707;52.086;5.418;2023-04-06T00:58:25;16.25;;;9.68;;
65936;SDS011;52707;52.086;5.418;2023-04-06T01:00:52;14.75;;;9.10;;
65936;SDS011;52707;52.086;5.418;2023-04-06T01:03:18;15.65;;;9.75;;
65936;SDS011;52707;52.086;5.418;2023-04-06T01:05:44;19.65;;;9.60;;
65936;SDS011;52707;52.086;5.418;2023-04-06T01:08:11;18.17;;;10.13;;
65936;SDS011;52707;52.086;5.418;2023-04-06T01:10:37;17.85;;;10.73;;
65936;SDS011;52707;52.086;5.418;2023-04-06T01:13:03;15.73;;;10.30;;
65936;SDS011;52707;52.086;5.418;2023-04-06T01:15:30;13.23;;;9.45;;
65936;SDS011;52707;52.086;5.418;2023-04-06T01:17:58;13.70;;;9.93;;
65936;SDS011;52707;52.086;5.418;2023-04-06T01:20:24;17.92;;;10.73;;
65936;SDS011;52707;52.086;5.418;2023-04-06T01:22:50;17.98;;;10.05;;
65936;SDS011;52707;52.086;5.418;2023-04-06T01:25:16;16.80;;;10.52;;
65936;SDS011;52707;52.086;5.418;2023-04-06T01:27:43;17.83;;;10.25;;
65936;SDS011;52707;52.086;5.418;2023-04-06T01:30:10;16.00;;;10.57;;
65936;SDS011;52707;52.086;5.418;2023-04-06T01:32:36;29.63;;;11.32;;
65936;SDS011;52707;52.086;5.418;2023-04-06T01:35:02;20.50;;;11.38;;
65936;SDS011;52707;52.086;5.418;2023-04-06T01:37:29;18.27;;;12.00;;
65936;SDS011;52707;52.086;5.418;2023-04-06T01:39:58;19.75;;;11.43;;
65936;SDS011;52707;52.086;5.418;2023-04-06T01:42:25;18.25;;;11.15;;
65936;SDS011;52707;52.086;5.418;2023-04-06T01:44:52;16.83;;;11.30;;
65936;SDS011;52707;52.086;5.418;2023-04-06T01:47:18;15.60;;;10.25;;
65936;SDS011;52707;52.086;5.418;2023-04-06T01:49:44;20.48;;;11.48;;
65936;SDS011;52707;52.086;5.418;2023-04-06T01:52:11;17.98;;;10.73;;
65936;SDS011;52707;52.086;5.418;2023-04-06T01:54:37;23.00;;;11.20;;
65936;SDS011;52707;52.086;5.418;2023-04-06T01:57:03;17.48;;;11.20;;
65936;SDS011;52707;52.086;5.418;2023-04-06T01:59:30;26.55;;;11.85;;
65936;SDS011;52707;52.086;5.418;2023-04-06T02:01:56;18.42;;;11.18;;
65936;SDS011;52707;52.086;5.418;2023-04-06T02:04:22;21.52;;;10.73;;
65936;SDS011;52707;52.086;5.418;2023-04-06T02:06:49;18.20;;;11.82;;
65936;SDS011;52707;52.086;5.418;2023-04-06T02:09:15;18.70;;;10.35;;
65936;SDS011;52707;52.086;5.418;2023-04-06T02:11:41;15.20;;;10.65;;
65936;SDS011;52707;52.086;5.418;2023-04-06T02:14:08;20.40;;;11.63;;
65936;SDS011;52707;52.086;5.418;2023-04-06T02:16:34;18.83;;;11.85;;
65936;SDS011;52707;52.086;5.418;2023-04-06T02:19:00;17.90;;;11.80;;
65936;SDS011;52707;52.086;5.418;2023-04-06T02:21:27;19.15;;;12.00;;
65936;SDS011;52707;52.086;5.418;2023-04-06T02:23:53;18.17;;;11.60;;
65936;SDS011;52707;52.086;5.418;2023-04-06T02:26:20;26.35;;;12.18;;
65936;SDS011;52707;52.086;5.418;2023-04-06T02:28:46;21.10;;;11.18;;
65936;SDS011;52707;52.086;5.418;2023-04-06T02:31:12;19.70;;;11.55;;
65936;SDS011;52707;52.086;5.418;2023-04-06T02:33:41;16.77;;;10.68;;
65936;SDS011;52707;52.086;5.418;2023-04-06T02:36:07;18.65;;;11.68;;
65936;SDS011;52707;52.086;5.418;2023-04-06T02:38:34;17.38;;;11.77;;
65936;SDS011;52707;52.086;5.418;2023-04-06T02:41:00;15.25;;;10.68;;
65936;SDS011;52707;52.086;5.418;2023-04-06T02:43:26;16.83;;;11.48;;
65936;SDS011;52707;52.086;5.418;2023-04-06T02:45:53;18.10;;;12.07;;
65936;SDS011;52707;52.086;5.418;2023-04-06T02:48:19;18.92;;;12.10;;
65936;SDS011;52707;52.086;5.418;2023-04-06T02:50:45;17.75;;;11.13;;
65936;SDS011;52707;52.086;5.418;2023-04-06T02:53:12;17.90;;;10.68;;
65936;SDS011;52707;52.086;5.418;2023-04-06T02:55:38;23.00;;;11.95;;
65936;SDS011;52707;52.086;5.418;2023-04-06T02:58:04;16.42;;;10.40;;
65936;SDS011;52707;52.086;5.418;2023-04-06T03:00:31;21.35;;;12.05;;
65936;SDS011;52707;52.086;5.418;2023-04-06T03:02:57;18.05;;;10.93;;
65936;SDS011;52707;52.086;5.418;2023-04-06T03:05:24;18.73;;;11.18;;
65936;SDS011;52707;52.086;5.418;2023-04-06T03:07:50;16.73;;;11.05;;
65936;SDS011;52707;52.086;5.418;2023-04-06T03:10:16;14.23;;;9.57;;
65936;SDS011;52707;52.086;5.418;2023-04-06T03:12:43;18.15;;;10.65;;
65936;SDS011;52707;52.086;5.418;2023-04-06T03:15:09;16.85;;;11.13;;
65936;SDS011;52707;52.086;5.418;2023-04-06T03:17:36;19.20;;;11.13;;
65936;SDS011;52707;52.086;5.418;2023-04-06T03:20:03;14.75;;;10.05;;
65936;SDS011;52707;52.086;5.418;2023-04-06T03:22:29;16.17;;;10.88;;
65936;SDS011;52707;52.086;5.418;2023-04-06T03:24:56;21.20;;;10.32;;
65936;SDS011;52707;52.086;5.418;2023-04-06T03:27:22;22.60;;;11.02;;
65936;SDS011;52707;52.086;5.418;2023-04-06T03:29:48;19.90;;;10.45;;
65936;SDS011;52707;52.086;5.418;2023-04-06T03:32:15;19.08;;;10.18;;
65936;SDS011;52707;52.086;5.418;2023-04-06T03:34:41;15.60;;;10.52;;
65936;SDS011;52707;52.086;5.418;2023-04-06T03:37:07;15.32;;;9.65;;
65936;SDS011;52707;52.086;5.418;2023-04-06T03:39:36;16.30;;;10.57;;
65936;SDS011;52707;52.086;5.418;2023-04-06T03:42:02;17.08;;;10.30;;
65936;SDS011;52707;52.086;5.418;2023-04-06T03:44:29;14.38;;;9.85;;
65936;SDS011;52707;52.086;5.418;2023-04-06T03:46:55;16.00;;;10.73;;
65936;SDS011;52707;52.086;5.418;2023-04-06T03:49:21;14.57;;;9.57;;
65936;SDS011;52707;52.086;5.418;2023-04-06T03:51:48;12.63;;;8.95;;
65936;SDS011;52707;52.086;5.418;2023-04-06T03:54:14;13.82;;;8.98;;
65936;SDS011;52707;52.086;5.418;2023-04-06T03:56:41;17.85;;;9.10;;
65936;SDS011;52707;52.086;5.418;2023-04-06T03:59:07;14.20;;;8.90;;
65936;SDS011;52707;52.086;5.418;2023-04-06T04:01:34;17.48;;;10.02;;
65936;SDS011;52707;52.086;5.418;2023-04-06T04:04:00;18.98;;;9.90;;
65936;SDS011;52707;52.086;5.418;2023-04-06T04:06:27;16.73;;;9.60;;
65936;SDS011;52707;52.086;5.418;2023-04-06T04:08:53;17.85;;;9.75;;
65936;SDS011;52707;52.086;5.418;2023-04-06T04:11:19;18.02;;;10.15;;
65936;SDS011;52707;52.086;5.418;2023-04-06T04:13:46;22.08;;;10.85;;
65936;SDS011;52707;52.086;5.418;2023-04-06T04:16:12;19.80;;;9.77;;
65936;SDS011;52707;52.086;5.418;2023-04-06T04:18:38;21.45;;;11.38;;
65936;SDS011;52707;52.086;5.418;2023-04-06T04:21:05;19.92;;;10.63;;
65936;SDS011;52707;52.086;5.418;2023-04-06T04:23:31;22.75;;;10.80;;
65936;SDS011;52707;52.086;5.418;2023-04-06T04:25:58;20.45;;;10.77;;
65936;SDS011;52707;52.086;5.418;2023-04-06T04:28:24;21.67;;;11.13;;
65936;SDS011;52707;52.086;5.418;2023-04-06T04:30:50;17.98;;;11.38;;
65936;SDS011;52707;52.086;5.418;2023-04-06T04:33:17;17.25;;;10.57;;
65936;SDS011;52707;52.086;5.418;2023-04-06T04:35:43;17.85;;;11.57;;
65936;SDS011;52707;52.086;5.418;2023-04-06T04:38:09;22.23;;;13.07;;
65936;SDS011;52707;52.086;5.418;2023-04-06T04:40:36;18.33;;;10.68;;
65936;SDS011;52707;52.086;5.418;2023-04-06T04:43:02;18.75;;;11.38;;
65936;SDS011;52707;52.086;5.418;2023-04-06T04:45:28;19.77;;;11.63;;
65936;SDS011;52707;52.086;5.418;2023-04-06T04:47:55;19.80;;;11.07;;
65936;SDS011;52707;52.086;5.418;2023-04-06T04:50:21;19.92;;;11.55;;
65936;SDS011;52707;52.086;5.418;2023-04-06T04:52:47;20.45;;;11.20;;
65936;SDS011;52707;52.086;5.418;2023-04-06T04:55:14;22.25;;;11.82;;
65936;SDS011;52707;52.086;5.418;2023-04-06T04:57:40;24.40;;;11.98;;
65936;SDS011;52707;52.086;5.418;2023-04-06T05:00:07;23.08;;;12.57;;
65936;SDS011;52707;52.086;5.418;2023-04-06T05:02:33;30.88;;;14.15;;
65936;SDS011;52707;52.086;5.418;2023-04-06T05:05:00;22.48;;;12.70;;
65936;SDS011;52707;52.086;5.418;2023-04-06T05:07:26;23.63;;;13.05;;
65936;SDS011;52707;52.086;5.418;2023-04-06T05:09:53;27.33;;;13.57;;
65936;SDS011;52707;52.086;5.418;2023-04-06T05:12:19;25.13;;;13.00;;
65936;SDS011;52707;52.086;5.418;2023-04-06T05:14:45;38.38;;;14.05;;
65936;SDS011;52707;52.086;5.418;2023-04-06T05:17:12;25.00;;;14.13;;
65936;SDS011;52707;52.086;5.418;2023-04-06T05:19:38;28.17;;;14.52;;
65936;SDS011;52707;52.086;5.418;2023-04-06T05:22:04;25.50;;;14.23;;
65936;SDS011;52707;52.086;5.418;2023-04-06T05:24:31;24.08;;;15.00;;
65936;SDS011;52707;52.086;5.418;2023-04-06T05:26:57;30.10;;;14.43;;
65936;SDS011;52707;52.086;5.418;2023-04-06T05:29:23;23.08;;;14.00;;
65936;SDS011;52707;52.086;5.418;2023-04-06T05:31:50;25.88;;;15.27;;
65936;SDS011;52707;52.086;5.418;2023-04-06T05:34:17;28.83;;;14.73;;
65936;SDS011;52707;52.086;5.418;2023-04-06T05:36:43;46.13;;;14.55;;
65936;SDS011;52707;52.086;5.418;2023-04-06T05:39:09;22.65;;;14.23;;
65936;SDS011;52707;52.086;5.418;2023-04-06T05:41:36;28.05;;;14.05;;
65936;SDS011;52707;52.086;5.418;2023-04-06T05:44:02;23.30;;;13.48;;
65936;SDS011;52707;52.086;5.418;2023-04-06T05:46:29;27.92;;;15.57;;
65936;SDS011;52707;52.086;5.418;2023-04-06T05:48:55;28.33;;;14.68;;
65936;SDS011;52707;52.086;5.418;2023-04-06T05:51:22;22.15;;;13.90;;
65936;SDS011;52707;52.086;5.418;2023-04-06T05:53:48;23.85;;;13.50;;
65936;SDS011;52707;52.086;5.418;2023-04-06T05:56:14;21.92;;;13.02;;
65936;SDS011;52707;52.086;5.418;2023-04-06T05:58:41;23.33;;;13.40;;
65936;SDS011;52707;52.086;5.418;2023-04-06T06:01:07;21.25;;;12.88;;
65936;SDS011;52707;52.086;5.418;2023-04-06T06:03:35;25.38;;;13.43;;
65936;SDS011;52707;52.086;5.418;2023-04-06T06:06:01;28.00;;;14.70;;
65936;SDS011;52707;52.086;5.418;2023-04-06T06:08:30;23.13;;;13.35;;
65936;SDS011;52707;52.086;5.418;2023-04-06T06:10:56;27.80;;;13.18;;
65936;SDS011;52707;52.086;5.418;2023-04-06T06:13:23;30.45;;;14.77;;
65936;SDS011;52707;52.086;5.418;2023-04-06T06:15:50;26.52;;;13.95;;
65936;SDS011;52707;52.086;5.418;2023-04-06T06:18:16;24.00;;;14.00;;
65936;SDS011;52707;52.086;5.418;2023-04-06T06:20:42;27.48;;;13.82;;
65936;SDS011;52707;52.086;5.418;2023-04-06T06:23:09;27.10;;;14.73;;
65936;SDS011;52707;52.086;5.418;2023-04-06T06:25:35;30.45;;;13.93;;
65936;SDS011;52707;52.086;5.418;2023-04-06T06:28:01;23.35;;;13.52;;
65936;SDS011;52707;52.086;5.418;2023-04-06T06:30:28;25.08;;;13.98;;
65936;SDS011;52707;52.086;5.418;2023-04-06T06:32:54;23.27;;;13.77;;
65936;SDS011;52707;52.086;5.418;2023-04-06T06:35:20;29.92;;;13.93;;
65936;SDS011;52707;52.086;5.418;2023-04-06T06:37:47;23.80;;;13.23;;
65936;SDS011;52707;52.086;5.418;2023-04-06T06:40:13;22.60;;;14.27;;
65936;SDS011;52707;52.086;5.418;2023-04-06T06:42:42;30.05;;;15.63;;
65936;SDS011;52707;52.086;5.418;2023-04-06T06:45:08;26.67;;;15.23;;
65936;SDS011;52707;52.086;5.418;2023-04-06T06:47:35;26.83;;;14.65;;
65936;SDS011;52707;52.086;5.418;2023-04-06T06:50:01;25.23;;;15.88;;
65936;SDS011;52707;52.086;5.418;2023-04-06T06:52:29;25.35;;;14.65;;
65936;SDS011;52707;52.086;5.418;2023-04-06T06:54:55;30.10;;;14.00;;
65936;SDS011;52707;52.086;5.418;2023-04-06T06:57:23;29.73;;;16.02;;
65936;SDS011;52707;52.086;5.418;2023-04-06T06:59:49;28.13;;;15.65;;
65936;SDS011;52707;52.086;5.418;2023-04-06T07:02:15;30.10;;;16.33;;
65936;SDS011;52707;52.086;5.418;2023-04-06T07:04:42;28.00;;;16.60;;
65936;SDS011;52707;52.086;5.418;2023-04-06T07:07:08;26.75;;;16.25;;
65936;SDS011;52707;52.086;5.418;2023-04-06T07:09:35;28.08;;;16.52;;
65936;SDS011;52707;52.086;5.418;2023-04-06T07:12:01;29.42;;;15.70;;
65936;SDS011;52707;52.086;5.418;2023-04-06T07:14:28;36.50;;;15.77;;
65936;SDS011;52707;52.086;5.418;2023-04-06T07:16:54;28.15;;;15.35;;
65936;SDS011;52707;52.086;5.418;2023-04-06T07:19:21;27.08;;;16.45;;
65936;SDS011;52707;52.086;5.418;2023-04-06T07:21:47;27.83;;;16.15;;
65936;SDS011;52707;52.086;5.418;2023-04-06T07:24:15;27.98;;;15.40;;
65936;SDS011;52707;52.086;5.418;2023-04-06T07:26:41;31.77;;;16.35;;
65936;SDS011;52707;52.086;5.418;2023-04-06T07:29:08;31.98;;;15.88;;
65936;SDS011;52707;52.086;5.418;2023-04-06T07:31:34;27.42;;;16.50;;
65936;SDS011;52707;52.086;5.418;2023-04-06T07:34:02;28.50;;;16.23;;
65936;SDS011;52707;52.086;5.418;2023-04-06T07:36:28;36.65;;;18.02;;
65936;SDS011;52707;52.086;5.418;2023-04-06T07:38:54;29.13;;;16.95;;
65936;SDS011;52707;52.086;5.418;2023-04-06T07:41:21;41.42;;;17.48;;
65936;SDS011;52707;52.086;5.418;2023-04-06T07:43:47;34.65;;;17.70;;
65936;SDS011;52707;52.086;5.418;2023-04-06T07:46:14;27.88;;;16.30;;
65936;SDS011;52707;52.086;5.418;2023-04-06T07:48:40;30.10;;;16.15;;
65936;SDS011;52707;52.086;5.418;2023-04-06T07:51:07;32.33;;;15.77;;
65936;SDS011;52707;52.086;5.418;2023-04-06T07:53:33;27.08;;;15.85;;
65936;SDS011;52707;52.086;5.418;2023-04-06T07:55:59;27.27;;;17.13;;
65936;SDS011;52707;52.086;5.418;2023-04-06T07:58:26;38.67;;;17.00;;
65936;SDS011;52707;52.086;5.418;2023-04-06T08:00:52;27.02;;;16.80;;
65936;SDS011;52707;52.086;5.418;2023-04-06T08:03:18;33.17;;;16.80;;
65936;SDS011;52707;52.086;5.418;2023-04-06T08:05:47;29.33;;;15.57;;
65936;SDS011;52707;52.086;5.418;2023-04-06T08:08:14;28.02;;;16.33;;
65936;SDS011;52707;52.086;5.418;2023-04-06T08:10:40;32.13;;;17.23;;
65936;SDS011;52707;52.086;5.418;2023-04-06T08:13:06;27.73;;;16.92;;
65936;SDS011;52707;52.086;5.418;2023-04-06T08:15:34;30.13;;;17.38;;
65936;SDS011;52707;52.086;5.418;2023-04-06T08:18:00;39.58;;;18.02;;
65936;SDS011;52707;52.086;5.418;2023-04-06T08:20:27;31.40;;;17.55;;
65936;SDS011;52707;52.086;5.418;2023-04-06T08:22:53;28.23;;;17.77;;
65936;SDS011;52707;52.086;5.418;2023-04-06T08:25:20;31.10;;;17.98;;
65936;SDS011;52707;52.086;5.418;2023-04-06T08:27:46;40.53;;;18.38;;
65936;SDS011;52707;52.086;5.418;2023-04-06T08:30:12;32.60;;;17.27;;
65936;SDS011;52707;52.086;5.418;2023-04-06T08:32:41;26.25;;;17.40;;
65936;SDS011;52707;52.086;5.418;2023-04-06T08:35:07;33.78;;;17.30;;
65936;SDS011;52707;52.086;5.418;2023-04-06T08:37:34;28.42;;;16.45;;
65936;SDS011;52707;52.086;5.418;2023-04-06T08:40:00;35.45;;;19.27;;
65936;SDS011;52707;52.086;5.418;2023-04-06T08:42:27;29.30;;;17.27;;
65936;SDS011;52707;52.086;5.418;2023-04-06T08:44:54;31.67;;;16.80;;
65936;SDS011;52707;52.086;5.418;2023-04-06T08:47:21;32.50;;;18.33;;
65936;SDS011;52707;52.086;5.418;2023-04-06T08:49:50;31.40;;;18.35;;
65936;SDS011;52707;52.086;5.418;2023-04-06T08:52:20;37.20;;;19.73;;
65936;SDS011;52707;52.086;5.418;2023-04-06T08:54:46;40.65;;;18.95;;
65936;SDS011;52707;52.086;5.418;2023-04-06T08:57:13;40.08;;;19.20;;
65936;SDS011;52707;52.086;5.418;2023-04-06T08:59:40;41.58;;;17.73;;
65936;SDS011;52707;52.086;5.418;2023-04-06T09:02:07;34.20;;;19.17;;
65936;SDS011;52707;52.086;5.418;2023-04-06T09:04:39;36.20;;;20.02;;
65936;SDS011;52707;52.086;5.418;2023-04-06T09:07:05;32.17;;;17.63;;
65936;SDS011;52707;52.086;5.418;2023-04-06T09:09:31;40.40;;;19.38;;
65936;SDS011;52707;52.086;5.418;2023-04-06T09:11:58;38.40;;;19.30;;
65936;SDS011;52707;52.086;5.418;2023-04-06T09:14:35;31.83;;;19.35;;
65936;SDS011;52707;52.086;5.418;2023-04-06T09:17:02;31.88;;;17.95;;
65936;SDS011;52707;52.086;5.418;2023-04-06T09:19:29;31.23;;;17.83;;
65936;SDS011;52707;52.086;5.418;2023-04-06T09:22:04;40.45;;;19.92;;
65936;SDS011;52707;52.086;5.418;2023-04-06T09:24:39;33.35;;;17.98;;
65936;SDS011;52707;52.086;5.418;2023-04-06T09:27:06;43.70;;;20.20;;
65936;SDS011;52707;52.086;5.418;2023-04-06T09:29:32;34.63;;;18.60;;
65936;SDS011;52707;52.086;5.418;2023-04-06T09:32:03;29.70;;;17.42;;
65936;SDS011;52707;52.086;5.418;2023-04-06T09:34:29;33.53;;;19.40;;
65936;SDS011;52707;52.086;5.418;2023-04-06T09:36:56;29.98;;;18.40;;
65936;SDS011;52707;52.086;5.418;2023-04-06T09:39:22;30.70;;;18.70;;
65936;SDS011;52707;52.086;5.418;2023-04-06T09:41:52;31.98;;;18.10;;
65936;SDS011;52707;52.086;5.418;2023-04-06T09:44:18;35.90;;;18.50;;
65936;SDS011;52707;52.086;5.418;2023-04-06T09:46:46;33.47;;;18.77;;
65936;SDS011;52707;52.086;5.418;2023-04-06T09:49:30;32.15;;;18.30;;
65936;SDS011;52707;52.086;5.418;2023-04-06T09:51:59;34.85;;;19.00;;
65936;SDS011;52707;52.086;5.418;2023-04-06T09:54:28;36.93;;;19.33;;
65936;SDS011;52707;52.086;5.418;2023-04-06T09:59:28;42.45;;;21.75;;
65936;SDS011;52707;52.086;5.418;2023-04-06T10:01:58;36.25;;;21.50;;
65936;SDS011;52707;52.086;5.418;2023-04-06T10:07:00;39.95;;;21.48;;
65936;SDS011;52707;52.086;5.418;2023-04-06T10:09:28;41.42;;;21.02;;
65936;SDS011;52707;52.086;5.418;2023-04-06T10:12:02;44.42;;;20.92;;
65936;SDS011;52707;52.086;5.418;2023-04-06T10:14:29;39.63;;;19.35;;
65936;SDS011;52707;52.086;5.418;2023-04-06T10:16:56;39.63;;;19.60;;
65936;SDS011;52707;52.086;5.418;2023-04-06T10:19:25;30.20;;;17.80;;
65936;SDS011;52707;52.086;5.418;2023-04-06T10:21:53;37.08;;;17.95;;
65936;SDS011;52707;52.086;5.418;2023-04-06T10:24:20;33.63;;;16.48;;
65936;SDS011;52707;52.086;5.418;2023-04-06T10:27:02;28.02;;;15.48;;
65936;SDS011;52707;52.086;5.418;2023-04-06T10:29:41;32.33;;;15.43;;
65936;SDS011;52707;52.086;5.418;2023-04-06T10:32:07;24.90;;;15.15;;
65936;SDS011;52707;52.086;5.418;2023-04-06T10:34:34;21.42;;;13.05;;
65936;SDS011;52707;52.086;5.418;2023-04-06T10:37:14;27.17;;;13.18;;
65936;SDS011;52707;52.086;5.418;2023-04-06T10:39:47;24.02;;;12.18;;
65936;SDS011;52707;52.086;5.418;2023-04-06T10:42:14;22.45;;;12.85;;
65936;SDS011;52707;52.086;5.418;2023-04-06T10:44:43;16.13;;;10.00;;
65936;SDS011;52707;52.086;5.418;2023-04-06T10:47:15;19.50;;;9.35;;
65936;SDS011;52707;52.086;5.418;2023-04-06T10:49:42;17.25;;;8.75;;
65936;SDS011;52707;52.086;5.418;2023-04-06T10:52:08;13.45;;;7.68;;
65936;SDS011;52707;52.086;5.418;2023-04-06T10:54:35;12.68;;;7.45;;
65936;SDS011;52707;52.086;5.418;2023-04-06T10:57:05;14.90;;;7.35;;
65936;SDS011;52707;52.086;5.418;2023-04-06T10:59:32;16.90;;;7.88;;
65936;SDS011;52707;52.086;5.418;2023-04-06T11:01:58;15.13;;;7.25;;
65936;SDS011;52707;52.086;5.418;2023-04-06T11:04:24;10.50;;;6.97;;
65936;SDS011;52707;52.086;5.418;2023-04-06T11:06:51;12.27;;;7.18;;
65936;SDS011;52707;52.086;5.418;2023-04-06T11:09:27;9.80;;;7.15;;
65936;SDS011;52707;52.086;5.418;2023-04-06T11:11:54;10.85;;;7.15;;
65936;SDS011;52707;52.086;5.418;2023-04-06T11:14:21;11.68;;;7.20;;
65936;SDS011;52707;52.086;5.418;2023-04-06T11:16:47;15.48;;;7.13;;
65936;SDS011;52707;52.086;5.418;2023-04-06T11:19:17;12.83;;;7.10;;
65936;SDS011;52707;52.086;5.418;2023-04-06T11:21:44;12.75;;;6.10;;
65936;SDS011;52707;52.086;5.418;2023-04-06T11:24:15;12.38;;;6.82;;
65936;SDS011;52707;52.086;5.418;2023-04-06T11:26:43;9.25;;;5.88;;
65936;SDS011;52707;52.086;5.418;2023-04-06T11:29:10;11.20;;;6.30;;
65936;SDS011;52707;52.086;5.418;2023-04-06T11:31:38;11.02;;;6.53;;
65936;SDS011;52707;52.086;5.418;2023-04-06T11:34:09;11.10;;;7.45;;
65936;SDS011;52707;52.086;5.418;2023-04-06T11:36:35;9.65;;;6.65;;
65936;SDS011;52707;52.086;5.418;2023-04-06T11:39:03;13.48;;;7.15;;
65936;SDS011;52707;52.086;5.418;2023-04-06T11:41:29;13.77;;;6.85;;
65936;SDS011;52707;52.086;5.418;2023-04-06T11:43:56;6.75;;;5.00;;
65936;SDS011;52707;52.086;5.418;2023-04-06T11:46:22;8.30;;;5.80;;
65936;SDS011;52707;52.086;5.418;2023-04-06T11:48:52;11.23;;;6.20;;
65936;SDS011;52707;52.086;5.418;2023-04-06T11:51:22;8.63;;;5.57;;
65936;SDS011;52707;52.086;5.418;2023-04-06T11:53:49;9.48;;;6.40;;
65936;SDS011;52707;52.086;5.418;2023-04-06T11:56:25;8.77;;;6.05;;
65936;SDS011;52707;52.086;5.418;2023-04-06T11:58:52;8.95;;;5.90;;
65936;SDS011;52707;52.086;5.418;2023-04-06T12:01:18;10.45;;;6.32;;
65936;SDS011;52707;52.086;5.418;2023-04-06T12:03:45;12.88;;;7.28;;
65936;SDS011;52707;52.086;5.418;2023-04-06T12:06:12;11.95;;;6.35;;
65936;SDS011;52707;52.086;5.418;2023-04-06T12:08:38;11.93;;;7.82;;
65936;SDS011;52707;52.086;5.418;2023-04-06T12:11:05;16.42;;;8.18;;
65936;SDS011;52707;52.086;5.418;2023-04-06T12:13:31;13.75;;;7.60;;
65936;SDS011;52707;52.086;5.418;2023-04-06T12:15:58;15.57;;;7.95;;
65936;SDS011;52707;52.086;5.418;2023-04-06T12:18:24;13.30;;;7.75;;
65936;SDS011;52707;52.086;5.418;2023-04-06T12:20:51;9.05;;;6.40;;
65936;SDS011;52707;52.086;5.418;2023-04-06T12:23:18;15.20;;;7.78;;
65936;SDS011;52707;52.086;5.418;2023-04-06T12:25:45;11.15;;;7.35;;
65936;SDS011;52707;52.086;5.418;2023-04-06T12:28:12;12.40;;;8.48;;
65936;SDS011;52707;52.086;5.418;2023-04-06T12:30:38;17.73;;;8.32;;
65936;SDS011;52707;52.086;5.418;2023-04-06T12:33:05;12.18;;;8.48;;
65936;SDS011;52707;52.086;5.418;2023-04-06T12:35:34;11.80;;;7.95;;
65936;SDS011;52707;52.086;5.418;2023-04-06T12:38:01;15.25;;;8.13;;
65936;SDS011;52707;52.086;5.418;2023-04-06T12:40:28;12.40;;;8.88;;
65936;SDS011;52707;52.086;5.418;2023-04-06T12:42:54;12.50;;;8.35;;
65936;SDS011;52707;52.086;5.418;2023-04-06T12:45:20;14.75;;;8.68;;
65936;SDS011;52707;52.086;5.418;2023-04-06T12:47:47;16.23;;;8.40;;
65936;SDS011;52707;52.086;5.418;2023-04-06T12:50:13;13.80;;;8.68;;
65936;SDS011;52707;52.086;5.418;2023-04-06T12:52:39;13.25;;;8.40;;
65936;SDS011;52707;52.086;5.418;2023-04-06T12:55:06;11.75;;;7.57;;
65936;SDS011;52707;52.086;5.418;2023-04-06T12:57:32;11.05;;;7.50;;
65936;SDS011;52707;52.086;5.418;2023-04-06T12:59:59;15.90;;;8.95;;
65936;SDS011;52707;52.086;5.418;2023-04-06T13:02:26;17.30;;;8.55;;
65936;SDS011;52707;52.086;5.418;2023-04-06T13:04:53;16.13;;;8.63;;
65936;SDS011;52707;52.086;5.418;2023-04-06T13:07:19;14.52;;;8.40;;
65936;SDS011;52707;52.086;5.418;2023-04-06T13:09:46;15.40;;;8.63;;
65936;SDS011;52707;52.086;5.418;2023-04-06T13:12:13;11.90;;;8.52;;
65936;SDS011;52707;52.086;5.418;2023-04-06T13:14:40;13.85;;;8.63;;
65936;SDS011;52707;52.086;5.418;2023-04-06T13:17:06;13.45;;;9.02;;
65936;SDS011;52707;52.086;5.418;2023-04-06T13:19:32;11.57;;;8.68;;
65936;SDS011;52707;52.086;5.418;2023-04-06T13:21:59;12.68;;;9.18;;
65936;SDS011;52707;52.086;5.418;2023-04-06T13:24:25;15.00;;;9.02;;
65936;SDS011;52707;52.086;5.418;2023-04-06T13:26:52;15.13;;;9.45;;
65936;SDS011;52707;52.086;5.418;2023-04-06T13:29:18;15.65;;;9.65;;
65936;SDS011;52707;52.086;5.418;2023-04-06T13:31:44;15.95;;;9.63;;
65936;SDS011;52707;52.086;5.418;2023-04-06T13:34:11;18.80;;;10.00;;
65936;SDS011;52707;52.086;5.418;2023-04-06T13:36:37;17.73;;;9.73;;
65936;SDS011;52707;52.086;5.418;2023-04-06T13:39:06;15.77;;;9.10;;
65936;SDS011;52707;52.086;5.418;2023-04-06T13:41:33;16.13;;;9.50;;
65936;SDS011;52707;52.086;5.418;2023-04-06T13:43:59;16.45;;;9.77;;
65936;SDS011;52707;52.086;5.418;2023-04-06T13:46:25;12.38;;;8.65;;
65936;SDS011;52707;52.086;5.418;2023-04-06T13:48:53;13.57;;;9.13;;
65936;SDS011;52707;52.086;5.418;2023-04-06T13:51:19;15.93;;;9.55;;
65936;SDS011;52707;52.086;5.418;2023-04-06T13:53:46;13.68;;;9.23;;
65936;SDS011;52707;52.086;5.418;2023-04-06T13:56:12;15.10;;;9.43;;
65936;SDS011;52707;52.086;5.418;2023-04-06T13:58:38;16.40;;;9.80;;
65936;SDS011;52707;52.086;5.418;2023-04-06T14:01:08;14.00;;;9.40;;
65936;SDS011;52707;52.086;5.418;2023-04-06T14:03:36;12.32;;;9.10;;
65936;SDS011;52707;52.086;5.418;2023-04-06T14:06:10;13.90;;;8.90;;
65936;SDS011;52707;52.086;5.418;2023-04-06T14:08:55;16.63;;;8.93;;
65936;SDS011;52707;52.086;5.418;2023-04-06T14:11:21;15.43;;;9.13;;
65936;SDS011;52707;52.086;5.418;2023-04-06T14:13:49;14.13;;;9.85;;
65936;SDS011;52707;52.086;5.418;2023-04-06T14:16:15;14.50;;;9.70;;
65936;SDS011;52707;52.086;5.418;2023-04-06T14:18:45;15.55;;;9.45;;
65936;SDS011;52707;52.086;5.418;2023-04-06T14:21:11;15.55;;;10.05;;
65936;SDS011;52707;52.086;5.418;2023-04-06T14:23:38;17.42;;;9.82;;
65936;SDS011;52707;52.086;5.418;2023-04-06T14:26:05;15.77;;;10.13;;
65936;SDS011;52707;52.086;5.418;2023-04-06T14:28:32;17.30;;;10.85;;
65936;SDS011;52707;52.086;5.418;2023-04-06T14:30:59;18.08;;;10.40;;